ADDS METAR Data INFO
IDs: Format: Raw Decoded Include TAF

Data at: 0933 UTC 17 Oct 2017

KIOW 170852Z AUTO 20005KT 10SM CLR 12/04 A3017 RMK AO2 SLP214 T01170044 56005
KIOW 170752Z AUTO 22005KT 10SM CLR 12/04 A3017 RMK AO2 SLP216 T01170044
KIOW 170652Z AUTO 20006KT 10SM CLR 12/04 A3017 RMK AO2 SLP216 T01170044
KIOW 170552Z AUTO 19004KT 10SM CLR 11/04 A3018 RMK AO2 SLP220 T01110039 10144 20106 402000022 58007
KIOW 170452Z AUTO 19004KT 10SM CLR 11/04 A3019 RMK AO2 SLP224 T01060039
KIOW 170352Z AUTO 20008KT 10SM CLR 13/03 A3020 RMK AO2 SLP228 T01280033
KIOW 170252Z AUTO 20008KT 10SM CLR 13/04 A3020 RMK AO2 SLP228 T01330039 50001
KIOW 170152Z AUTO 18005KT 10SM CLR 11/04 A3020 RMK AO2 SLP230 T01110039
KIOW 170052Z AUTO 17005KT 10SM CLR 12/04 A3020 RMK AO2 SLP231 T01220039
KIOW 162352Z AUTO 18006KT 10SM CLR 14/03 A3020 RMK AO2 SLP229 T01390033 10200 20139 56011
KIOW 162252Z AUTO 20005KT 10SM CLR 18/02 A3021 RMK AO2 SLP232 T01830022
KIOW 162152Z AUTO 23007KT 10SM CLR 19/01 A3021 RMK AO2 SLP231 T01940006
KIOW 162052Z AUTO 27008KT 10SM CLR 19/01 A3023 RMK AO2 SLP238 T01940011 56029
KIOW 161952Z AUTO 26011KT 10SM CLR 19/01 A3025 RMK AO2 SLP246 T01940011
KIOW 161852Z AUTO 29009G17KT 10SM CLR 19/01 A3029 RMK AO2 SLP257 T01890011
KIOW 161752Z AUTO 27009KT 10SM CLR 18/03 A3032 RMK AO2 SLP269 T01780028 10178 20022 58010
KIOW 161652Z AUTO 26007KT 10SM CLR 16/04 A3033 RMK AO2 SLP274 T01610039
KIOW 161552Z AUTO VRB03KT 10SM CLR 13/06 A3034 RMK AO2 SLP277 T01330061
KIOW 161452Z AUTO 00000KT 10SM CLR 10/05 A3035 RMK AO2 SLP280 T01000050 52004
KIOW 161352Z AUTO 00000KT 10SM CLR 06/03 A3035 RMK AO2 SLP281 T00610033
KIOW 161252Z AUTO 00000KT 10SM CLR 03/01 A3034 RMK AO2 SLP278 T00280011
KIOW 161152Z AUTO 00000KT 10SM CLR 04/01 A3034 RMK AO2 SLP277 T00390011 10050 20022 53013
KIOW 161052Z AUTO 00000KT 10SM CLR 02/01 A3032 RMK AO2 SLP272 T00220006
KIOW 160952Z AUTO 00000KT 10SM CLR 04/02 A3030 RMK AO2 SLP264 T00440017
KIOW 160852Z AUTO 00000KT 10SM CLR 03/01 A3030 RMK AO2 SLP264 T00330011 50000
KIOW 160752Z AUTO 00000KT 10SM CLR 05/02 A3031 RMK AO2 SLP265 T00500022
KIOW 160652Z AUTO 00000KT 10SM CLR 04/02 A3030 RMK AO2 SLP265 T00390022
KIOW 160552Z AUTO 00000KT 5SM BR CLR 04/02 A3030 RMK AO2 SLP263 T00390022 10094 20039 401720039 58005
KIOW 160452Z AUTO 00000KT 10SM CLR 04/03 A3030 RMK AO2 SLP265 T00390028
KIOW 160352Z AUTO 00000KT 10SM CLR 05/03 A3032 RMK AO2 SLP269 T00500033
KIOW 160252Z AUTO 00000KT 10SM CLR 06/04 A3031 RMK AO2 SLP268 T00610039 53013
KIOW 160152Z AUTO 00000KT 10SM CLR 07/04 A3030 RMK AO2 SLP263 T00670044
KIOW 160052Z AUTO 00000KT 10SM CLR 08/04 A3029 RMK AO2 SLP260 T00780044
KIOW 152352Z AUTO 00000KT 10SM CLR 10/04 A3028 RMK AO2 SLP254 T01000039 10128 20100 53004
KIOW 152252Z AUTO 33005KT 10SM FEW045 12/04 A3027 RMK AO2 SLP251 T01220039
KIOW 152152Z AUTO 32009KT 10SM BKN038 12/04 A3027 RMK AO2 SLP250 T01220039